createdAt,value
2023-02-23T00:02:03.862Z,14.63
2023-02-23T00:04:31.426Z,16.48
2023-02-23T00:06:59.075Z,22.52
2023-02-23T00:09:28.131Z,14.13
2023-02-23T00:11:57.389Z,14.40
2023-02-23T00:14:27.429Z,21.85
2023-02-23T00:16:56.473Z,16.75
2023-02-23T00:19:25.110Z,19.00
2023-02-23T00:21:53.824Z,14.05
2023-02-23T00:24:23.376Z,13.27
2023-02-23T00:26:51.710Z,13.90
2023-02-23T00:29:21.771Z,14.20
2023-02-23T00:31:50.218Z,14.50
2023-02-23T00:34:23.770Z,12.90
2023-02-23T00:36:55.662Z,12.40
2023-02-23T00:39:26.649Z,11.90
2023-02-23T00:41:55.695Z,12.68
2023-02-23T00:44:23.723Z,12.65
2023-02-23T00:46:52.234Z,12.55
2023-02-23T00:49:23.876Z,11.82
2023-02-23T00:51:52.392Z,11.85
2023-02-23T00:54:20.839Z,12.90
2023-02-23T00:56:48.530Z,11.35
2023-02-23T00:59:16.427Z,11.88
2023-02-23T01:01:44.300Z,13.98
2023-02-23T01:04:12.228Z,12.65
2023-02-23T01:06:40.990Z,12.25
2023-02-23T01:09:09.983Z,10.98
2023-02-23T01:11:41.627Z,11.10
2023-02-23T01:14:10.460Z,12.55
2023-02-23T01:16:39.160Z,12.68
2023-02-23T01:19:10.058Z,12.52
2023-02-23T01:21:38.808Z,12.10
2023-02-23T01:24:07.182Z,11.35
2023-02-23T01:26:38.258Z,12.00
2023-02-23T01:29:11.400Z,10.90
2023-02-23T01:31:40.519Z,10.63
2023-02-23T01:36:41.280Z,10.50
2023-02-23T01:39:12.299Z,11.05
2023-02-23T01:41:44.895Z,11.65
2023-02-23T01:44:15.878Z,11.63
2023-02-23T01:46:45.803Z,10.15
2023-02-23T01:49:20.388Z,11.88
2023-02-23T01:51:50.267Z,11.23
2023-02-23T01:54:42.149Z,11.85
2023-02-23T01:57:12.021Z,9.98
2023-02-23T01:59:49.186Z,12.68
2023-02-23T02:02:18.213Z,11.48
2023-02-23T02:04:46.985Z,13.90
2023-02-23T02:07:25.142Z,11.88
2023-02-23T02:10:12.423Z,11.02
2023-02-23T02:12:44.744Z,11.40
2023-02-23T02:15:18.200Z,11.45
2023-02-23T02:18:10.760Z,10.10
2023-02-23T02:21:12.318Z,10.25
2023-02-23T02:24:02.030Z,10.75
2023-02-23T02:26:48.064Z,9.98
2023-02-23T02:29:42.925Z,10.55
2023-02-23T02:33:01.978Z,11.82
2023-02-23T02:35:50.285Z,8.50
2023-02-23T02:38:43.095Z,11.68
2023-02-23T02:41:30.432Z,11.63
2023-02-23T02:44:20.273Z,11.65
2023-02-23T02:46:49.399Z,11.13
2023-02-23T02:49:35.286Z,10.57
2023-02-23T02:52:12.021Z,10.02
2023-02-23T02:54:57.376Z,10.85
2023-02-23T02:57:26.657Z,11.48
2023-02-23T03:00:13.218Z,12.45
2023-02-23T03:02:59.355Z,12.32
2023-02-23T03:05:49.122Z,11.90
2023-02-23T03:08:58.088Z,12.10
2023-02-23T03:11:50.155Z,12.13
2023-02-23T03:14:40.569Z,12.18
2023-02-23T03:17:58.572Z,12.20
2023-02-23T03:21:02.676Z,13.25
2023-02-23T03:24:21.232Z,13.70
2023-02-23T03:27:20.062Z,14.20
2023-02-23T03:30:19.485Z,12.80
2023-02-23T03:33:14.474Z,12.07
2023-02-23T03:36:13.023Z,13.27
2023-02-23T03:39:13.007Z,12.23
2023-02-23T03:42:00.294Z,11.95
2023-02-23T03:44:58.165Z,13.43
2023-02-23T03:47:46.309Z,12.32
2023-02-23T03:50:49.563Z,10.98
2023-02-23T03:53:37.055Z,10.77
2023-02-23T03:56:23.575Z,11.77
2023-02-23T03:59:11.111Z,14.68
2023-02-23T04:01:57.215Z,12.73
2023-02-23T04:04:43.227Z,11.55
2023-02-23T04:07:29.237Z,14.00
2023-02-23T04:10:15.383Z,13.13
2023-02-23T04:13:34.106Z,12.50
2023-02-23T04:16:29.916Z,12.88
2023-02-23T04:18:57.631Z,13.48
2023-02-23T04:21:25.286Z,11.48
2023-02-23T04:23:52.821Z,12.73
2023-02-23T04:26:20.538Z,12.98
2023-02-23T04:28:48.314Z,13.80
2023-02-23T04:31:18.412Z,9.23
2023-02-23T04:33:46.121Z,13.40
2023-02-23T04:36:13.638Z,12.82
2023-02-23T04:38:41.365Z,12.40
2023-02-23T04:41:09.291Z,13.00
2023-02-23T04:43:41.857Z,11.68
2023-02-23T04:46:09.786Z,12.15
2023-02-23T04:48:37.360Z,13.52
2023-02-23T04:51:05.097Z,15.55
2023-02-23T04:53:32.692Z,15.52
2023-02-23T04:56:00.374Z,15.77
2023-02-23T04:58:28.086Z,15.27
2023-02-23T05:00:55.899Z,23.63
2023-02-23T05:03:23.585Z,21.30
2023-02-23T05:05:52.629Z,23.20
2023-02-23T05:08:20.768Z,20.65
2023-02-23T05:10:48.314Z,17.40
2023-02-23T05:13:17.251Z,21.75
2023-02-23T05:15:45.225Z,19.33
2023-02-23T05:18:12.847Z,17.02
2023-02-23T05:20:44.919Z,16.98
2023-02-23T05:23:13.421Z,22.40
2023-02-23T05:25:41.975Z,13.10
2023-02-23T05:28:11.125Z,11.80
2023-02-23T05:30:38.954Z,13.10
2023-02-23T05:33:06.530Z,12.57
2023-02-23T05:35:34.705Z,12.43
2023-02-23T05:38:02.230Z,11.52
2023-02-23T05:40:30.386Z,13.45
2023-02-23T05:45:28.282Z,9.18
2023-02-23T05:47:56.417Z,7.70
2023-02-23T05:50:23.954Z,12.05
2023-02-23T05:52:53.983Z,9.10
2023-02-23T05:55:21.469Z,8.82
2023-02-23T05:57:50.830Z,10.07
2023-02-23T06:00:18.778Z,10.40
2023-02-23T06:02:53.157Z,10.43
2023-02-23T06:05:20.762Z,11.02
2023-02-23T06:07:48.290Z,12.23
2023-02-23T06:10:15.926Z,8.73
2023-02-23T06:12:43.471Z,8.93
2023-02-23T06:15:11.690Z,10.50
2023-02-23T06:17:39.270Z,11.73
2023-02-23T06:20:07.402Z,11.00
2023-02-23T06:22:37.322Z,11.35
2023-02-23T06:25:06.524Z,9.25
2023-02-23T06:27:34.230Z,10.18
2023-02-23T06:30:01.754Z,9.68
2023-02-23T06:32:29.673Z,8.63
2023-02-23T06:34:57.564Z,10.18
2023-02-23T06:37:25.731Z,10.68
2023-02-23T06:39:53.474Z,11.15
2023-02-23T06:42:21.242Z,11.48
2023-02-23T06:44:49.504Z,8.95
2023-02-23T06:47:17.472Z,10.75
2023-02-23T06:49:45.268Z,10.63
2023-02-23T06:52:13.921Z,10.45
2023-02-23T06:54:42.110Z,11.43
2023-02-23T06:57:10.072Z,7.95
2023-02-23T06:59:37.983Z,8.57
2023-02-23T07:02:07.470Z,7.95
2023-02-23T07:04:36.413Z,10.45
2023-02-23T07:07:05.501Z,12.82
2023-02-23T07:09:34.256Z,10.02
2023-02-23T07:14:35.901Z,8.37
2023-02-23T07:17:07.016Z,8.50
2023-02-23T07:19:40.217Z,11.95
2023-02-23T07:22:08.240Z,8.57
2023-02-23T07:24:36.301Z,7.25
2023-02-23T07:27:04.921Z,9.93
2023-02-23T07:29:33.385Z,10.10
2023-02-23T07:32:01.910Z,10.35
2023-02-23T07:34:29.925Z,8.57
2023-02-23T07:36:58.171Z,10.40
2023-02-23T07:39:26.445Z,9.55
2023-02-23T07:41:54.860Z,8.70
2023-02-23T07:44:29.778Z,7.75
2023-02-23T07:46:58.568Z,8.35
2023-02-23T07:49:26.651Z,10.35
2023-02-23T07:51:55.381Z,10.38
2023-02-23T07:54:23.973Z,11.00
2023-02-23T07:56:52.757Z,9.20
2023-02-23T07:59:21.901Z,8.90
2023-02-23T08:01:49.837Z,7.85
2023-02-23T08:04:17.925Z,9.07
2023-02-23T08:06:46.011Z,6.60
2023-02-23T08:09:15.189Z,9.23
2023-02-23T08:11:44.262Z,11.32
2023-02-23T08:14:15.118Z,8.48
2023-02-23T08:16:43.722Z,8.32
2023-02-23T08:19:19.435Z,6.40
2023-02-23T08:21:47.528Z,10.00
2023-02-23T08:24:17.712Z,8.73
2023-02-23T08:26:47.043Z,8.93
2023-02-23T08:29:18.547Z,6.30
2023-02-23T08:31:47.249Z,8.15
2023-02-23T08:34:19.797Z,5.80
2023-02-23T08:36:48.449Z,8.70
2023-02-23T08:39:21.308Z,7.15
2023-02-23T08:41:49.656Z,5.47
2023-02-23T08:44:17.467Z,7.90
2023-02-23T08:47:42.142Z,6.63
2023-02-23T08:50:30.420Z,6.43
2023-02-23T08:52:58.452Z,5.38
2023-02-23T08:55:26.794Z,6.60
2023-02-23T08:57:59.355Z,6.00
2023-02-23T09:00:27.587Z,7.30
2023-02-23T09:02:57.584Z,6.07
2023-02-23T09:05:25.634Z,5.13
2023-02-23T09:07:54.474Z,5.72
2023-02-23T09:10:25.076Z,6.95
2023-02-23T09:12:58.795Z,6.40
2023-02-23T09:15:26.776Z,6.70
2023-02-23T09:17:54.740Z,7.45
2023-02-23T09:20:27.146Z,7.13
2023-02-23T09:22:55.908Z,7.43
2023-02-23T09:25:29.384Z,8.70
2023-02-23T09:27:57.801Z,7.80
2023-02-23T09:30:26.426Z,6.40
2023-02-23T09:32:57.510Z,8.65
2023-02-23T09:35:25.753Z,7.32
2023-02-23T09:37:55.103Z,5.55
2023-02-23T09:40:32.110Z,6.78
2023-02-23T09:43:36.710Z,5.30
2023-02-23T09:46:45.550Z,7.13
2023-02-23T09:49:18.943Z,6.57
2023-02-23T09:51:49.379Z,6.60
2023-02-23T09:54:17.488Z,6.00
2023-02-23T09:56:48.959Z,5.95
2023-02-23T09:59:20.742Z,5.70
2023-02-23T10:01:48.627Z,7.50
2023-02-23T10:04:29.195Z,6.63
2023-02-23T10:07:00.113Z,5.72
2023-02-23T10:09:49.763Z,6.93
2023-02-23T10:12:26.770Z,6.47
2023-02-23T10:15:07.068Z,8.45
2023-02-23T10:17:51.963Z,5.97
2023-02-23T10:20:41.753Z,7.30
2023-02-23T10:23:14.004Z,9.38
2023-02-23T10:25:46.809Z,6.20
2023-02-23T10:28:16.686Z,7.47
2023-02-23T10:30:44.555Z,7.38
2023-02-23T10:33:20.903Z,7.32
2023-02-23T10:36:03.826Z,5.93
2023-02-23T10:38:40.532Z,4.47
2023-02-23T10:41:09.391Z,6.88
2023-02-23T10:43:39.249Z,5.20
2023-02-23T10:46:07.120Z,7.95
2023-02-23T10:48:40.103Z,7.28
2023-02-23T10:51:19.573Z,7.28
2023-02-23T10:53:51.061Z,7.25
2023-02-23T10:56:20.069Z,7.55
2023-02-23T10:58:52.801Z,6.43
2023-02-23T11:01:33.065Z,7.68
2023-02-23T11:04:14.216Z,7.18
2023-02-23T11:06:43.836Z,6.63
2023-02-23T11:09:47.564Z,7.88
2023-02-23T11:12:25.584Z,5.45
2023-02-23T11:14:55.231Z,4.20
2023-02-23T11:17:27.818Z,7.22
2023-02-23T11:20:19.376Z,22.17
2023-02-23T11:22:48.168Z,8.30
2023-02-23T11:25:20.323Z,7.35
2023-02-23T11:27:52.481Z,5.90
2023-02-23T11:30:22.014Z,4.45
2023-02-23T11:32:55.005Z,4.28
2023-02-23T11:35:22.714Z,6.57
2023-02-23T11:37:50.828Z,6.20
2023-02-23T11:40:21.624Z,6.57
2023-02-23T11:43:10.034Z,3.42
2023-02-23T11:45:45.741Z,7.32
2023-02-23T11:48:33.051Z,4.85
2023-02-23T11:51:00.739Z,6.45
2023-02-23T11:53:46.582Z,6.15
2023-02-23T11:56:14.779Z,6.00
2023-02-23T11:59:21.343Z,4.20
2023-02-23T12:01:53.691Z,6.80
2023-02-23T12:04:49.673Z,6.10
2023-02-23T12:07:23.529Z,5.10
2023-02-23T12:09:59.574Z,5.90
2023-02-23T12:12:28.371Z,5.82
2023-02-23T12:15:00.554Z,7.70
2023-02-23T12:17:31.985Z,5.00
2023-02-23T12:20:25.525Z,5.97
2023-02-23T12:23:13.990Z,6.75
2023-02-23T12:26:01.980Z,6.10
2023-02-23T12:29:00.668Z,6.07
2023-02-23T12:31:48.132Z,7.47
2023-02-23T12:34:24.283Z,6.88
2023-02-23T12:37:07.716Z,5.45
2023-02-23T12:39:36.940Z,6.47
2023-02-23T12:42:44.839Z,8.13
2023-02-23T12:45:34.178Z,7.45
2023-02-23T12:48:20.813Z,6.15
2023-02-23T12:50:53.345Z,8.25
2023-02-23T12:53:29.365Z,7.55
2023-02-23T12:56:04.620Z,7.53
2023-02-23T12:58:38.665Z,7.07
2023-02-23T13:01:13.043Z,7.25
2023-02-23T13:03:51.635Z,6.00
2023-02-23T13:06:53.192Z,7.45
2023-02-23T13:12:19.566Z,7.57
2023-02-23T13:14:58.849Z,8.73
2023-02-23T13:17:26.773Z,8.20
2023-02-23T13:19:58.984Z,6.13
2023-02-23T13:22:30.825Z,5.00
2023-02-23T13:25:00.027Z,8.30
2023-02-23T13:27:36.021Z,7.75
2023-02-23T13:30:04.675Z,7.78
2023-02-23T13:32:33.750Z,7.53
2023-02-23T13:35:03.016Z,6.57
2023-02-23T13:37:35.242Z,9.05
2023-02-23T13:40:22.970Z,7.63
2023-02-23T13:43:18.021Z,7.18
2023-02-23T13:46:01.904Z,6.50
2023-02-23T13:48:56.066Z,7.55
2023-02-23T13:51:58.278Z,8.77
2023-02-23T13:54:32.443Z,7.07
2023-02-23T13:57:05.788Z,6.70
2023-02-23T13:59:39.208Z,8.07
2023-02-23T14:02:33.193Z,7.68
2023-02-23T14:05:30.388Z,6.60
2023-02-23T14:08:05.843Z,6.55
2023-02-23T14:10:40.806Z,7.65
2023-02-23T14:13:25.508Z,6.53
2023-02-23T14:16:11.172Z,6.97
2023-02-23T14:18:56.429Z,7.32
2023-02-23T14:21:29.232Z,7.57
2023-02-23T14:24:13.559Z,6.95
2023-02-23T14:26:46.228Z,7.90
2023-02-23T14:29:18.062Z,7.25
2023-02-23T14:31:59.424Z,7.80
2023-02-23T14:34:51.352Z,8.25
2023-02-23T14:37:37.925Z,9.07
2023-02-23T14:40:37.722Z,4.40
2023-02-23T14:43:32.085Z,9.40
2023-02-23T14:46:01.328Z,10.80
2023-02-23T14:48:29.221Z,24.45
2023-02-23T14:51:17.141Z,15.20
2023-02-23T14:53:44.826Z,16.38
2023-02-23T14:56:20.596Z,8.85
2023-02-23T14:58:52.900Z,8.45
2023-02-23T15:01:37.625Z,11.13
2023-02-23T15:04:12.840Z,8.93
2023-02-23T15:06:42.548Z,11.57
2023-02-23T15:09:33.827Z,10.45
2023-02-23T15:14:31.268Z,17.55
2023-02-23T15:16:59.199Z,12.13
2023-02-23T15:19:28.795Z,17.95
2023-02-23T15:21:57.391Z,11.15
2023-02-23T15:24:31.744Z,14.00
2023-02-23T15:26:59.966Z,10.27
2023-02-23T15:29:32.656Z,11.20
2023-02-23T15:32:21.070Z,18.17
2023-02-23T15:34:49.068Z,14.10
2023-02-23T15:37:21.877Z,10.82
2023-02-23T15:39:54.836Z,15.30
2023-02-23T15:42:29.080Z,13.35
2023-02-23T15:45:01.014Z,22.52
2023-02-23T15:47:35.790Z,14.80
2023-02-23T15:50:34.919Z,13.32
2023-02-23T15:53:29.368Z,17.25
2023-02-23T15:56:03.062Z,21.08
2023-02-23T15:58:41.749Z,20.27
2023-02-23T16:01:15.534Z,18.10
2023-02-23T16:03:47.170Z,21.63
2023-02-23T16:06:24.390Z,18.15
2023-02-23T16:09:06.053Z,17.38
2023-02-23T16:11:37.816Z,45.90
2023-02-23T16:14:06.932Z,36.53
2023-02-23T16:19:05.306Z,28.77
2023-02-23T16:21:33.217Z,31.98
2023-02-23T16:24:06.892Z,37.83
2023-02-23T16:26:52.138Z,38.53
2023-02-23T16:29:41.723Z,31.13
2023-02-23T16:32:20.015Z,27.30
2023-02-23T16:35:00.642Z,28.02
2023-02-23T16:37:28.767Z,33.47
2023-02-23T16:39:57.309Z,29.80
2023-02-23T16:42:34.842Z,38.53
2023-02-23T16:45:02.765Z,79.40
2023-02-23T16:47:36.573Z,27.30
2023-02-23T16:50:20.728Z,32.83
2023-02-23T16:52:52.507Z,40.45
2023-02-23T16:55:27.423Z,28.52
2023-02-23T16:57:59.639Z,17.25
2023-02-23T17:00:32.189Z,15.50
2023-02-23T17:03:06.387Z,16.15
2023-02-23T17:05:35.064Z,15.48
2023-02-23T17:08:05.057Z,16.73
2023-02-23T17:10:33.865Z,16.27
2023-02-23T17:13:05.150Z,15.95
2023-02-23T17:15:38.246Z,17.83
2023-02-23T17:18:06.035Z,20.10
2023-02-23T17:20:33.702Z,17.67
2023-02-23T17:23:02.058Z,16.88
2023-02-23T17:25:30.108Z,20.25
2023-02-23T17:27:58.004Z,19.95
2023-02-23T17:30:25.623Z,29.60
2023-02-23T17:32:54.573Z,28.60
2023-02-23T17:35:22.595Z,20.10
2023-02-23T17:37:50.908Z,17.80
2023-02-23T17:40:31.244Z,16.42
2023-02-23T17:42:59.793Z,15.18
2023-02-23T17:45:28.091Z,14.68
2023-02-23T17:47:55.875Z,14.70
2023-02-23T17:50:24.289Z,14.57
2023-02-23T17:52:51.818Z,15.00
2023-02-23T17:55:19.754Z,14.75
2023-02-23T17:57:47.724Z,14.70
2023-02-23T18:00:16.649Z,36.30
2023-02-23T18:02:45.538Z,39.65
2023-02-23T18:05:13.628Z,18.05
2023-02-23T18:07:45.065Z,17.80
2023-02-23T18:10:14.741Z,47.97
2023-02-23T18:12:48.303Z,15.60
2023-02-23T18:15:18.612Z,13.85
2023-02-23T18:17:46.282Z,11.70
2023-02-23T18:20:15.359Z,13.02
2023-02-23T18:22:44.463Z,12.13
2023-02-23T18:25:39.582Z,12.77
2023-02-23T18:28:10.092Z,12.68
2023-02-23T18:30:38.599Z,12.57
2023-02-23T18:33:06.976Z,13.65
2023-02-23T18:35:37.553Z,12.50
2023-02-23T18:38:05.937Z,12.27
2023-02-23T18:40:33.772Z,12.30
2023-02-23T18:43:01.449Z,13.32
2023-02-23T18:45:29.437Z,15.18
2023-02-23T18:47:57.062Z,16.00
2023-02-23T18:50:26.504Z,16.67
2023-02-23T18:52:55.470Z,16.10
2023-02-23T18:55:23.421Z,20.05
2023-02-23T18:57:55.146Z,21.48
2023-02-23T19:00:23.153Z,17.50
2023-02-23T19:02:50.765Z,22.05
2023-02-23T19:05:20.854Z,22.58
2023-02-23T19:07:49.786Z,23.92
2023-02-23T19:10:17.895Z,21.35
2023-02-23T19:12:45.635Z,35.08
2023-02-23T19:15:13.492Z,33.30
2023-02-23T19:17:41.189Z,30.27
2023-02-23T19:20:13.433Z,34.95
2023-02-23T19:22:41.573Z,38.30
2023-02-23T19:25:11.829Z,66.43
2023-02-23T19:27:39.921Z,36.97
2023-02-23T19:30:10.214Z,43.60
2023-02-23T19:32:39.874Z,32.40
2023-02-23T19:35:10.454Z,41.40
2023-02-23T19:37:40.162Z,44.58
2023-02-23T19:40:08.522Z,36.45
2023-02-23T19:42:37.084Z,37.72
2023-02-23T19:45:05.094Z,40.15
2023-02-23T19:47:32.676Z,40.17
2023-02-23T19:50:00.246Z,36.53
2023-02-23T19:52:30.886Z,45.70
2023-02-23T19:55:03.873Z,41.28
2023-02-23T19:57:31.838Z,41.35
2023-02-23T19:59:59.356Z,50.50
2023-02-23T20:02:26.955Z,44.50
2023-02-23T20:04:54.647Z,41.40
2023-02-23T20:07:22.256Z,45.58
2023-02-23T20:09:49.717Z,47.78
2023-02-23T20:12:20.217Z,51.08
2023-02-23T20:14:49.697Z,45.10
2023-02-23T20:17:17.187Z,43.75
2023-02-23T20:19:46.919Z,44.30
2023-02-23T20:22:14.443Z,51.40
2023-02-23T20:24:42.025Z,84.50
2023-02-23T20:27:09.646Z,88.47
2023-02-23T20:29:37.626Z,97.93
2023-02-23T20:32:05.711Z,88.50
2023-02-23T20:34:35.762Z,91.38
2023-02-23T20:37:04.499Z,154.50
2023-02-23T20:39:32.180Z,99.03
2023-02-23T20:42:00.383Z,69.15
2023-02-23T20:44:29.461Z,66.55
2023-02-23T20:46:57.887Z,111.25
2023-02-23T20:49:27.511Z,67.25
2023-02-23T20:51:55.005Z,62.28
2023-02-23T20:54:22.632Z,58.20
2023-02-23T20:57:07.769Z,55.95
2023-02-23T20:59:38.863Z,59.55
2023-02-23T21:04:38.637Z,113.70
2023-02-23T21:07:06.914Z,85.35
2023-02-23T21:09:34.629Z,192.68
2023-02-23T21:12:03.760Z,71.40
2023-02-23T21:14:39.226Z,66.68
2023-02-23T21:17:06.809Z,63.08
2023-02-23T21:19:34.462Z,63.13
2023-02-23T21:22:02.954Z,62.13
2023-02-23T21:24:33.931Z,60.13
2023-02-23T21:27:05.436Z,72.60
2023-02-23T21:29:33.200Z,80.43
2023-02-23T21:32:01.285Z,68.47
2023-02-23T21:34:28.962Z,80.97
2023-02-23T21:37:09.748Z,171.07
2023-02-23T21:39:38.225Z,147.48
2023-02-23T21:42:08.590Z,112.07
2023-02-23T21:44:36.159Z,85.93
2023-02-23T21:47:07.341Z,85.55
2023-02-23T21:49:35.281Z,95.28
2023-02-23T21:52:03.650Z,94.28
2023-02-23T21:54:31.196Z,75.38
2023-02-23T21:56:58.791Z,51.70
2023-02-23T21:59:26.638Z,55.70
2023-02-23T22:01:54.444Z,51.25
2023-02-23T22:04:22.021Z,55.83
2023-02-23T22:06:49.662Z,59.55
2023-02-23T22:09:17.205Z,60.15
2023-02-23T22:11:46.311Z,57.67
2023-02-23T22:14:32.740Z,56.88
2023-02-23T22:17:00.562Z,50.95
2023-02-23T22:19:28.267Z,49.47
2023-02-23T22:21:55.781Z,48.30
2023-02-23T22:24:23.310Z,50.83
2023-02-23T22:26:54.399Z,48.83
2023-02-23T22:29:23.089Z,51.60
2023-02-23T22:31:51.166Z,50.45
2023-02-23T22:34:18.953Z,47.80
2023-02-23T22:36:46.595Z,47.22
2023-02-23T22:39:16.433Z,48.30
2023-02-23T22:41:47.624Z,47.53
2023-02-23T22:44:20.456Z,46.92
2023-02-23T22:46:48.450Z,48.33
2023-02-23T22:49:16.202Z,46.55
2023-02-23T22:51:44.408Z,46.05
2023-02-23T22:54:13.471Z,45.63
2023-02-23T22:56:42.457Z,46.40
2023-02-23T22:59:11.132Z,48.92
2023-02-23T23:01:39.000Z,45.08
2023-02-23T23:04:10.648Z,47.83
2023-02-23T23:06:40.233Z,50.55
2023-02-23T23:09:08.401Z,48.65
2023-02-23T23:11:36.508Z,48.75
2023-02-23T23:14:07.072Z,49.30
2023-02-23T23:16:35.320Z,49.10
2023-02-23T23:19:04.790Z,48.85
2023-02-23T23:21:33.599Z,50.47
2023-02-23T23:24:07.271Z,48.45
2023-02-23T23:26:36.315Z,45.92
2023-02-23T23:29:07.566Z,47.80
2023-02-23T23:31:36.900Z,47.22
2023-02-23T23:34:06.615Z,47.85
2023-02-23T23:36:37.445Z,35.33
2023-02-23T23:39:06.291Z,47.83
2023-02-23T23:41:35.565Z,48.95
2023-02-23T23:44:06.182Z,49.97
2023-02-23T23:46:35.612Z,36.75
2023-02-23T23:49:08.196Z,43.92
2023-02-23T23:51:44.829Z,46.33
2023-02-23T23:54:21.681Z,46.45
2023-02-23T23:56:49.828Z,51.60
2023-02-23T23:59:20.617Z,48.50
